Time;durP1;ratioP1;P1;durP2;ratioP2;P2;SDS_P1;SDS_P2;PMS_P1;PMS_P2;Temp;Humidity;BMP_temperature;BMP_pressure;BME280_temperature;BME280_humidity;BME280_pressure;Samples;Min_cycle;Max_cycle;Signal;HPM_P1;HPM_P2
2022/09/23 00:01:08;;;;;;;9.45;6.20;;;;;;;9.32;65.80;101490.56;5044633;28;20061;-70
2022/09/23 00:03:38;;;;;;;11.60;5.90;;;;;;;9.33;65.59;101485.28;5016198;28;20051;-69
2022/09/23 00:06:11;;;;;;;11.00;5.20;;;;;;;9.29;65.78;101488.94;5020549;28;20079;-71
2022/09/23 00:08:39;;;;;;;8.52;5.18;;;;;;;9.29;66.03;101480.19;5038652;28;20053;-69
2022/09/23 00:11:12;;;;;;;9.85;5.57;;;;;;;9.31;65.89;101480.97;5030184;28;20055;-71
2022/09/23 00:13:41;;;;;;;9.57;5.82;;;;;;;9.30;65.71;101474.03;5045379;28;20064;-71
2022/09/23 00:16:14;;;;;;;9.38;5.53;;;;;;;9.25;66.09;101475.97;5030257;28;20041;-71
2022/09/23 00:18:42;;;;;;;8.48;5.82;;;;;;;9.22;65.79;101476.94;5042616;28;20053;-72
2022/09/23 00:21:11;;;;;;;9.15;5.30;;;;;;;9.21;66.08;101472.63;5016723;28;20140;-71
2022/09/23 00:23:39;;;;;;;11.45;5.15;;;;;;;9.25;65.84;101470.72;5047839;28;20049;-72
2022/09/23 00:26:08;;;;;;;10.20;5.90;;;;;;;9.27;66.25;101471.50;5030893;28;20056;-72
2022/09/23 00:28:35;;;;;;;11.20;4.97;;;;;;;9.16;66.49;101469.31;5026908;28;20064;-71
2022/09/23 00:31:11;;;;;;;7.15;4.85;;;;;;;9.13;66.78;101461.56;5047219;28;20052;-71
2022/09/23 00:33:39;;;;;;;7.47;5.20;;;;;;;9.08;66.92;101466.13;5019190;28;20146;-71
2022/09/23 00:36:14;;;;;;;9.15;4.72;;;;;;;9.06;66.59;101458.31;5045750;28;20045;-72
2022/09/23 00:38:45;;;;;;;10.02;5.13;;;;;;;9.08;66.35;101456.47;5042806;28;20124;-71
2022/09/23 00:41:16;;;;;;;7.60;4.90;;;;;;;9.09;67.03;101460.81;5032088;28;20060;-71
2022/09/23 00:44:22;;;;;;;9.48;5.43;;;;;;;9.03;66.98;101452.31;5025713;28;20242;-72
2022/09/23 00:46:49;;;;;;;9.95;5.07;;;;;;;9.05;66.78;101454.00;5027836;28;20045;-72
2022/09/23 00:49:24;;;;;;;7.35;4.88;;;;;;;9.06;66.97;101441.72;5027767;28;20100;-72
2022/09/23 00:52:09;;;;;;;12.40;5.38;;;;;;;9.01;67.55;101451.53;5031784;28;20131;-72
2022/09/23 00:54:36;;;;;;;8.00;5.00;;;;;;;8.97;67.76;101444.69;5031633;28;20049;-72
2022/09/23 00:57:04;;;;;;;7.15;4.55;;;;;;;8.91;68.47;101450.16;5040188;28;20048;-72
2022/09/23 00:59:33;;;;;;;7.40;4.45;;;;;;;8.84;68.65;101449.56;5015075;28;20053;-72
2022/09/23 01:02:05;;;;;;;7.07;4.78;;;;;;;8.84;68.23;101445.16;5053072;28;20076;-71
2022/09/23 01:04:32;;;;;;;16.20;5.05;;;;;;;8.85;68.28;101438.16;5050844;28;20192;-72
2022/09/23 01:06:59;;;;;;;7.75;4.90;;;;;;;8.79;68.52;101439.25;5022839;28;20048;-72
2022/09/23 01:09:26;;;;;;;8.45;6.03;;;;;;;8.74;68.12;101432.47;5038062;28;20043;-72
2022/09/23 01:12:12;;;;;;;8.10;4.93;;;;;;;8.73;68.73;101435.97;5020034;28;20053;-72
2022/09/23 01:14:39;;;;;;;8.45;4.80;;;;;;;8.74;68.56;101428.06;5027749;28;20057;-72
2022/09/23 01:17:12;;;;;;;8.55;4.50;;;;;;;8.66;68.67;101429.28;5044029;28;20598;-72
2022/09/23 01:20:12;;;;;;;10.63;4.65;;;;;;;8.67;68.88;101423.97;5027652;28;20052;-72
2022/09/23 01:22:52;;;;;;;7.07;4.00;;;;;;;8.69;68.64;101423.88;5015637;28;20081;-73
2022/09/23 01:25:41;;;;;;;9.63;5.00;;;;;;;8.68;68.79;101419.56;5025730;28;20478;-72
2022/09/23 01:28:45;;;;;;;8.10;4.20;;;;;;;8.65;68.62;101412.66;5044302;28;20045;-73
2022/09/23 01:31:25;;;;;;;7.13;4.63;;;;;;;8.67;68.51;101416.06;5026689;28;20044;-72
2022/09/23 01:34:00;;;;;;;7.10;4.53;;;;;;;8.68;68.85;101416.94;5045654;28;20610;-72
2022/09/23 01:36:29;;;;;;;9.70;4.65;;;;;;;8.67;68.61;101417.84;5044740;28;20053;-72
2022/09/23 01:38:58;;;;;;;9.98;5.13;;;;;;;8.61;69.30;101416.31;5014607;28;20064;-72
2022/09/23 01:41:43;;;;;;;8.75;5.15;;;;;;;8.54;68.97;101414.84;5015156;28;20611;-71
2022/09/23 01:44:14;;;;;;;6.60;4.20;;;;;;;8.48;70.29;101415.94;5022333;28;20063;-73
2022/09/23 01:46:50;;;;;;;9.48;4.75;;;;;;;8.46;69.55;101404.63;5044826;28;20060;-71
2022/09/23 01:49:21;;;;;;;;;;;;;;;8.47;69.84;101416.00;5037469;28;20081;-71
2022/09/23 01:51:56;;;;;;;8.07;4.45;;;;;;;8.47;69.44;101408.97;5043929;28;19924;-71
2022/09/23 01:54:41;;;;;;;10.07;4.95;;;;;;;8.44;69.88;101411.69;5037035;28;20055;-72
2022/09/23 01:57:14;;;;;;;9.73;5.00;;;;;;;8.44;69.88;101414.31;5028353;28;20041;-71
2022/09/23 01:59:48;;;;;;;6.13;4.60;;;;;;;8.46;69.37;101411.63;5030791;28;20139;-72
2022/09/23 02:02:21;;;;;;;7.88;4.65;;;;;;;8.41;69.91;101411.81;5023961;28;20041;-71
2022/09/23 02:05:13;;;;;;;8.88;4.65;;;;;;;8.42;69.52;101410.91;5035710;28;20468;-71
2022/09/23 02:08:06;;;;;;;9.00;5.32;;;;;;;8.43;69.70;101403.91;5041266;28;20053;-71
2022/09/23 02:10:43;;;;;;;10.25;4.45;;;;;;;8.48;69.97;101407.22;5044639;28;20051;-72
2022/09/23 02:13:19;;;;;;;9.18;5.07;;;;;;;8.47;69.43;101395.84;5038207;28;20053;-72
2022/09/23 02:15:50;;;;;;;7.20;4.90;;;;;;;8.45;69.51;101394.19;5017282;28;20135;-73
2022/09/23 02:18:23;;;;;;;6.72;4.82;;;;;;;8.45;69.71;101392.41;5021802;28;20041;-72
2022/09/23 02:20:55;;;;;;;9.88;4.85;;;;;;;8.48;69.35;101391.47;5050223;28;20115;-71
2022/09/23 02:23:41;;;;;;;7.05;4.15;;;;;;;8.50;69.29;101392.25;5055472;28;20041;-71
2022/09/23 02:26:40;;;;;;;7.97;4.38;;;;;;;8.45;69.42;101389.78;5060443;28;20125;-72
2022/09/23 02:29:31;;;;;;;7.32;4.70;;;;;;;8.45;70.12;101381.91;5035561;28;20047;-72
2022/09/23 02:31:58;;;;;;;7.60;4.80;;;;;;;8.41;70.15;101380.31;5038110;28;20063;-71
2022/09/23 02:34:27;;;;;;;8.13;4.32;;;;;;;8.40;70.19;101377.78;5061172;28;20041;-71
2022/09/23 02:36:59;;;;;;;6.05;4.63;;;;;;;8.34;70.50;101374.44;5050204;28;20079;-71
2022/09/23 02:39:33;;;;;;;9.10;4.70;;;;;;;8.35;70.42;101370.03;5031341;28;20064;-71
2022/09/23 02:42:06;;;;;;;9.68;4.90;;;;;;;8.34;70.88;101368.34;5053264;28;20132;-71
2022/09/23 02:44:33;;;;;;;8.10;5.35;;;;;;;8.29;70.48;101362.41;5038094;28;20045;-71
2022/09/23 02:47:01;;;;;;;6.55;3.90;;;;;;;8.25;71.21;101366.06;5053144;28;20045;-71
2022/09/23 02:49:29;;;;;;;8.23;4.55;;;;;;;8.23;71.25;101358.22;5062083;28;20057;-71
2022/09/23 02:52:03;;;;;;;7.78;4.30;;;;;;;8.25;71.04;101366.91;5064860;28;20128;-70
2022/09/23 02:54:32;;;;;;;9.63;4.70;;;;;;;8.23;71.48;101360.00;5026849;28;20061;-71
2022/09/23 02:57:01;;;;;;;7.80;4.88;;;;;;;8.24;70.83;101351.22;5024239;28;20112;-71
2022/09/23 02:59:29;;;;;;;8.40;4.70;;;;;;;8.21;71.06;101348.72;5025865;28;20087;-71
2022/09/23 03:02:19;;;;;;;9.15;5.10;;;;;;;8.24;71.33;101351.22;5018320;28;20049;-72
2022/09/23 03:05:08;;;;;;;6.82;4.22;;;;;;;8.18;71.17;101354.94;5022595;28;20132;-71
2022/09/23 03:07:47;;;;;;;8.10;4.13;;;;;;;8.21;70.79;101348.72;5062213;28;20045;-72
2022/09/23 03:10:56;;;;;;;8.15;4.55;;;;;;;8.16;71.92;101340.19;5045051;28;20053;-71
2022/09/23 03:13:28;;;;;;;8.18;5.18;;;;;;;8.14;71.16;101340.22;5062925;28;20042;-71
2022/09/23 03:16:07;;;;;;;11.02;4.38;;;;;;;8.15;71.73;101346.31;5052268;28;20072;-70
2022/09/23 03:18:45;;;;;;;5.78;4.28;;;;;;;8.17;71.37;101337.47;5046054;28;20053;-70
2022/09/23 03:21:32;;;;;;;9.48;4.57;;;;;;;8.17;71.69;101340.09;5048930;28;20045;-70
2022/09/23 03:24:01;;;;;;;6.55;4.28;;;;;;;8.12;72.04;101327.16;5015771;28;20128;-70
2022/09/23 03:26:36;;;;;;;10.15;4.47;;;;;;;8.14;71.70;101327.09;5018738;28;20045;-69
2022/09/23 03:29:08;;;;;;;6.93;4.33;;;;;;;8.14;71.50;101337.59;5029658;28;20045;-70
2022/09/23 03:31:36;;;;;;;7.07;4.38;;;;;;;8.10;71.39;101331.63;5052891;28;20475;-71
2022/09/23 03:34:07;;;;;;;7.88;4.38;;;;;;;8.10;72.28;101328.13;5047360;28;20432;-71
2022/09/23 03:36:50;;;;;;;8.32;4.78;;;;;;;8.08;72.58;101330.81;5034299;28;20045;-72
2022/09/23 03:39:44;;;;;;;6.30;4.05;;;;;;;8.08;72.67;101325.56;5050420;28;20167;-71
2022/09/23 03:42:21;;;;;;;5.35;4.07;;;;;;;8.02;72.22;101323.19;5013969;28;20087;-71
2022/09/23 03:44:53;;;;;;;6.93;3.97;;;;;;;7.99;73.07;101317.19;5038434;28;20053;-71
2022/09/23 03:47:23;;;;;;;7.22;3.80;;;;;;;7.95;72.46;101320.84;5034119;28;20050;-71
2022/09/23 03:49:51;;;;;;;5.93;3.72;;;;;;;7.92;72.83;101319.16;5027689;28;20069;-72
2022/09/23 03:52:21;;;;;;;7.20;3.75;;;;;;;7.92;73.28;101319.16;5062693;28;20055;-70
2022/09/23 03:54:50;;;;;;;7.63;3.65;;;;;;;7.92;72.73;101316.53;5037658;28;20639;-71
2022/09/23 03:57:20;;;;;;;7.15;4.18;;;;;;;7.94;72.41;101314.75;5018762;28;20045;-71
2022/09/23 03:59:51;;;;;;;7.45;3.92;;;;;;;7.95;72.60;101321.69;5022566;28;20144;-69
2022/09/23 04:02:19;;;;;;;7.57;4.40;;;;;;;7.92;72.93;101316.53;5046661;28;20072;-70
2022/09/23 04:04:46;;;;;;;6.32;3.97;;;;;;;7.88;72.30;101317.59;5038534;28;20045;-69
2022/09/23 04:07:14;;;;;;;5.95;4.10;;;;;;;7.89;72.98;101311.44;5058127;28;20091;-70
2022/09/23 04:09:41;;;;;;;7.28;4.07;;;;;;;7.87;72.79;101305.38;5049061;28;20059;-70
2022/09/23 04:12:12;;;;;;;6.25;4.53;;;;;;;7.85;73.03;101304.59;5050184;28;20068;-70
2022/09/23 04:14:39;;;;;;;7.07;4.13;;;;;;;7.86;73.47;101298.44;5037167;28;20075;-72
2022/09/23 04:17:06;;;;;;;5.68;3.97;;;;;;;7.77;73.24;101299.63;5053128;28;20133;-72
2022/09/23 04:19:35;;;;;;;7.13;4.20;;;;;;;7.74;73.64;101301.50;5035317;28;20055;-71
2022/09/23 04:22:03;;;;;;;6.75;4.13;;;;;;;7.73;73.64;101294.56;5027468;28;20147;-70
2022/09/23 04:24:30;;;;;;;6.65;4.03;;;;;;;7.73;73.49;101298.03;5033738;28;20179;-70
2022/09/23 04:26:58;;;;;;;5.47;4.07;;;;;;;7.72;73.59;101293.69;5032021;28;20448;-70
2022/09/23 04:29:26;;;;;;;5.40;3.75;;;;;;;7.72;73.19;101298.09;5026240;28;20045;-71
2022/09/23 04:31:53;;;;;;;8.93;4.53;;;;;;;7.72;73.58;101292.84;5029994;28;20057;-70
2022/09/23 04:34:20;;;;;;;5.85;4.25;;;;;;;7.66;74.38;101295.72;5031749;28;20041;-70
2022/09/23 04:36:48;;;;;;;6.90;4.18;;;;;;;7.66;73.80;101293.94;5016012;28;20060;-71
2022/09/23 04:39:16;;;;;;;6.90;4.15;;;;;;;7.64;73.84;101290.50;5061224;28;20045;-71
2022/09/23 04:41:43;;;;;;;5.95;3.90;;;;;;;7.65;73.76;101291.34;5000699;28;20044;-72
2022/09/23 04:44:12;;;;;;;6.72;4.60;;;;;;;7.65;73.73;101286.97;5045699;28;20049;-72
2022/09/23 04:46:46;;;;;;;8.32;4.40;;;;;;;7.63;74.21;101282.69;5013579;28;20053;-71
2022/09/23 04:49:14;;;;;;;7.43;4.28;;;;;;;7.58;74.44;101288.09;5049569;28;20128;-72
2022/09/23 04:51:42;;;;;;;6.85;3.72;;;;;;;7.55;74.08;101285.59;5042768;28;20426;-71
2022/09/23 04:54:11;;;;;;;6.50;4.82;;;;;;;7.58;73.99;101291.59;5042248;28;20043;-72
2022/09/23 04:56:38;;;;;;;6.68;4.10;;;;;;;7.59;74.31;101288.03;5030519;28;20052;-71
2022/09/23 04:59:06;;;;;;;9.20;4.57;;;;;;;7.56;74.20;101288.16;5047065;28;20056;-71
2022/09/23 05:01:34;;;;;;;10.30;4.47;;;;;;;7.53;74.63;101283.03;5030452;28;20577;-71
2022/09/23 05:04:07;;;;;;;12.55;4.78;;;;;;;7.51;74.68;101291.84;5033156;28;20128;-71
2022/09/23 05:06:35;;;;;;;8.63;4.15;;;;;;;7.49;75.06;101286.66;5041764;28;20057;-70
2022/09/23 05:09:04;;;;;;;7.82;4.35;;;;;;;7.51;74.97;101289.22;5041429;28;20061;-70
2022/09/23 05:11:32;;;;;;;11.20;4.93;;;;;;;7.48;74.98;101282.34;5012523;28;20072;-69
2022/09/23 05:13:59;;;;;;;10.20;4.15;;;;;;;7.47;74.77;101287.63;5024308;28;20137;-71
2022/09/23 05:16:26;;;;;;;7.18;4.47;;;;;;;7.48;74.89;101289.34;5042880;28;20055;-71
2022/09/23 05:18:53;;;;;;;7.20;3.83;;;;;;;7.49;74.63;101283.19;5041012;28;20061;-70
2022/09/23 05:21:23;;;;;;;4.97;3.97;;;;;;;7.47;74.73;101288.47;5026184;28;20041;-70
2022/09/23 05:23:53;;;;;;;6.68;4.28;;;;;;;7.50;74.14;101287.53;5044760;28;20059;-70
2022/09/23 05:26:24;;;;;;;5.82;3.80;;;;;;;7.50;74.64;101282.28;5040081;28;20077;-70
2022/09/23 05:28:52;;;;;;;7.82;4.05;;;;;;;7.52;74.46;101280.44;5048403;28;20093;-70
2022/09/23 05:31:22;;;;;;;7.63;4.15;;;;;;;7.52;74.73;101283.06;5030403;28;20041;-70
2022/09/23 05:33:52;;;;;;;6.82;3.95;;;;;;;7.50;74.48;101284.91;5025529;28;20055;-71
2022/09/23 05:36:20;;;;;;;5.88;3.78;;;;;;;7.47;74.89;101283.22;5033115;28;20064;-70
2022/09/23 05:38:48;;;;;;;10.52;4.03;;;;;;;7.51;74.76;101290.06;5048299;28;20044;-70
2022/09/23 05:41:18;;;;;;;6.63;3.58;;;;;;;7.55;74.64;101281.19;5013366;28;20063;-69
2022/09/23 05:43:46;;;;;;;4.95;3.63;;;;;;;7.56;75.30;101282.91;5039313;28;20067;-70
2022/09/23 05:46:18;;;;;;;6.32;3.72;;;;;;;7.55;74.89;101282.97;5025735;28;20072;-70
2022/09/23 05:48:46;;;;;;;5.95;3.75;;;;;;;7.55;74.62;101281.19;5010110;28;20047;-69
2022/09/23 05:51:16;;;;;;;6.15;4.57;;;;;;;7.58;74.64;101286.34;5021840;28;20052;-70
2022/09/23 05:53:46;;;;;;;6.32;3.95;;;;;;;7.60;74.28;101279.25;5044780;28;20052;-69
2022/09/23 05:56:15;;;;;;;5.88;3.80;;;;;;;7.63;75.24;101280.09;5016784;28;20063;-69
2022/09/23 05:58:43;;;;;;;5.53;3.63;;;;;;;7.63;75.10;101286.19;5021745;28;20049;-69
2022/09/23 06:01:16;;;;;;;6.30;3.58;;;;;;;7.70;75.12;101281.56;5014228;28;20061;-69
2022/09/23 06:03:48;;;;;;;6.50;3.75;;;;;;;7.79;77.37;101287.34;5025181;28;20049;-70
2022/09/23 06:06:17;;;;;;;5.05;3.72;;;;;;;7.85;76.23;101283.63;5021264;28;20056;-69
2022/09/23 06:08:45;;;;;;;4.05;3.22;;;;;;;7.93;78.18;101283.34;5047587;28;20059;-69
2022/09/23 06:11:12;;;;;;;6.30;3.72;;;;;;;7.96;77.10;101286.69;5003643;28;20067;-69
2022/09/23 06:13:40;;;;;;;5.18;3.38;;;;;;;8.02;77.14;101288.25;5013275;28;20112;-69
2022/09/23 06:16:12;;;;;;;5.40;3.83;;;;;;;8.02;76.61;101286.47;5033061;28;20041;-70
2022/09/23 06:18:41;;;;;;;5.53;3.75;;;;;;;8.09;76.94;101287.09;5041773;28;20811;-69
2022/09/23 06:21:13;;;;;;;6.35;2.97;;;;;;;8.14;76.68;101282.50;5049631;28;20693;-70
2022/09/23 06:23:41;;;;;;;5.65;3.47;;;;;;;8.21;77.02;101280.53;5011850;28;20057;-69
2022/09/23 06:26:11;;;;;;;5.05;3.50;;;;;;;8.26;77.42;101289.91;5047862;28;20087;-69
2022/09/23 06:28:39;;;;;;;9.18;3.88;;;;;;;8.34;78.42;101292.25;5018176;28;20045;-70
2022/09/23 06:31:11;;;;;;;9.15;3.78;;;;;;;8.43;79.29;101281.44;5010901;28;20051;-70
2022/09/23 06:33:44;;;;;;;6.90;3.90;;;;;;;8.49;79.35;101281.19;5018275;28;20057;-70
2022/09/23 06:36:12;;;;;;;8.63;4.80;;;;;;;8.54;79.67;101286.25;5025379;28;20057;-70
2022/09/23 06:38:50;;;;;;;6.13;4.47;;;;;;;8.55;79.91;101280.91;5030856;28;20049;-69
2022/09/23 06:41:19;;;;;;;8.40;4.20;;;;;;;8.59;79.85;101293.00;5022405;28;20059;-69
2022/09/23 06:43:46;;;;;;;7.45;4.20;;;;;;;8.66;79.82;101292.78;5021430;28;20037;-69
2022/09/23 06:46:15;;;;;;;7.50;4.22;;;;;;;8.67;79.71;101291.88;5010109;28;20060;-69
2022/09/23 06:48:43;;;;;;;6.75;4.43;;;;;;;8.70;79.99;101291.75;5019285;28;20526;-69
2022/09/23 06:51:17;;;;;;;6.57;4.15;;;;;;;8.73;79.55;101283.72;5006179;28;20071;-69
2022/09/23 06:53:46;;;;;;;6.22;3.85;;;;;;;8.78;79.09;101289.63;5039126;28;20411;-69
2022/09/23 06:56:13;;;;;;;8.32;4.00;;;;;;;8.80;78.42;101295.69;5029563;28;20127;-69
2022/09/23 06:58:41;;;;;;;8.93;4.50;;;;;;;8.85;78.24;101299.00;5030136;28;20045;-69
2022/09/23 07:01:11;;;;;;;8.07;4.55;;;;;;;8.94;78.60;101287.25;5027380;28;20049;-69
2022/09/23 07:03:39;;;;;;;12.82;4.00;;;;;;;9.03;78.88;101295.59;5039732;28;20044;-70
2022/09/23 07:06:06;;;;;;;7.50;4.13;;;;;;;9.07;78.93;101291.06;5051666;28;20091;-70
2022/09/23 07:08:34;;;;;;;4.68;3.35;;;;;;;9.11;79.13;101290.88;5026678;28;20045;-69
2022/09/23 07:11:04;;;;;;;9.73;3.75;;;;;;;9.22;79.50;101294.81;5032682;28;20124;-68
2022/09/23 07:13:32;;;;;;;5.25;3.50;;;;;;;9.28;79.68;101299.84;5044841;28;20049;-71
2022/09/23 07:16:00;;;;;;;8.25;3.47;;;;;;;9.34;78.65;101291.69;5013927;28;20133;-70
2022/09/23 07:18:30;;;;;;;9.27;3.63;;;;;;;9.37;78.54;101296.81;5032006;28;20054;-70
2022/09/23 07:21:13;;;;;;;6.40;3.90;;;;;;;9.45;78.75;101299.09;5025900;28;20061;-69
2022/09/23 07:23:44;;;;;;;7.22;3.88;;;;;;;9.55;78.79;101295.16;5007586;28;20053;-70
2022/09/23 07:26:14;;;;;;;7.28;3.63;;;;;;;9.64;78.65;101295.59;5036968;28;20048;-71
2022/09/23 07:28:41;;;;;;;8.35;3.75;;;;;;;9.72;78.20;101297.00;5014450;28;20044;-71
2022/09/23 07:31:10;;;;;;;6.38;4.22;;;;;;;9.77;78.30;101300.28;5050318;28;20132;-70
2022/09/23 07:33:38;;;;;;;11.80;4.10;;;;;;;9.87;78.38;101296.34;5031665;28;20051;-70
2022/09/23 07:36:09;;;;;;;6.25;3.78;;;;;;;9.95;77.81;101298.59;5039553;28;20057;-70
2022/09/23 07:38:36;;;;;;;6.93;3.83;;;;;;;10.02;77.70;101295.63;5034004;28;20044;-69
2022/09/23 07:41:11;;;;;;;8.30;4.75;;;;;;;10.11;77.57;101289.94;5013059;28;20054;-70
2022/09/23 07:43:39;;;;;;;8.32;4.05;;;;;;;10.23;77.50;101290.31;5028105;28;20160;-70
2022/09/23 07:46:11;;;;;;;10.80;4.70;;;;;;;10.37;77.18;101296.66;5016020;28;20529;-70
2022/09/23 07:48:40;;;;;;;11.73;5.22;;;;;;;10.44;77.20;101291.09;5033268;28;20091;-70
2022/09/23 07:51:11;;;;;;;15.18;5.07;;;;;;;10.57;76.88;101293.06;5022732;28;20045;-70
2022/09/23 07:53:38;;;;;;;11.77;4.95;;;;;;;10.70;75.60;101292.47;5012681;28;20049;-70
2022/09/23 07:56:05;;;;;;;8.50;4.30;;;;;;;10.73;76.13;101293.19;5032729;28;20068;-70
2022/09/23 07:58:33;;;;;;;10.00;4.63;;;;;;;10.78;76.54;101295.59;5040941;28;20056;-70
2022/09/23 08:01:05;;;;;;;7.78;4.60;;;;;;;10.90;76.08;101290.59;5029375;28;20064;-70
2022/09/23 08:03:34;;;;;;;12.18;4.53;;;;;;;10.91;76.37;101286.16;5033308;28;20641;-70
2022/09/23 08:06:05;;;;;;;8.27;5.22;;;;;;;11.04;76.08;101286.41;5032887;28;20048;-69
2022/09/23 08:08:33;;;;;;;12.77;4.75;;;;;;;11.07;76.43;101291.50;5044263;28;20049;-70
2022/09/23 08:11:04;;;;;;;10.75;4.78;;;;;;;11.16;76.56;101286.63;5019709;28;20503;-70
2022/09/23 08:13:32;;;;;;;8.27;4.57;;;;;;;11.24;76.43;101288.88;5029880;28;20059;-70
2022/09/23 08:15:59;;;;;;;7.07;4.55;;;;;;;11.27;77.50;101291.34;5012071;28;20083;-70
2022/09/23 08:18:26;;;;;;;7.00;4.57;;;;;;;11.34;77.10;101286.59;5044925;28;20132;-70
2022/09/23 08:20:54;;;;;;;10.48;5.38;;;;;;;11.43;77.30;101287.91;5042605;28;20044;-70
2022/09/23 08:23:21;;;;;;;10.30;4.55;;;;;;;11.49;77.08;101285.00;5047731;28;20050;-71
2022/09/23 08:25:58;;;;;;;13.75;4.65;;;;;;;11.59;77.50;101286.19;5014388;28;20045;-70
2022/09/23 08:28:26;;;;;;;10.57;4.97;;;;;;;11.71;76.69;101289.97;5048448;28;20041;-69
2022/09/23 08:30:54;;;;;;;6.25;4.43;;;;;;;11.82;76.31;101284.97;5023898;28;20053;-69
2022/09/23 08:33:22;;;;;;;6.75;4.57;;;;;;;11.90;75.66;101281.03;5021967;28;20681;-69
2022/09/23 08:35:50;;;;;;;9.45;4.25;;;;;;;11.96;75.34;101286.91;5039253;28;20537;-70
2022/09/23 08:38:18;;;;;;;6.10;4.38;;;;;;;12.01;75.39;101283.06;5015708;28;20653;-70
2022/09/23 08:40:47;;;;;;;7.35;4.75;;;;;;;12.09;74.68;101280.88;5018339;28;20053;-70
2022/09/23 08:43:24;;;;;;;5.68;3.30;;;;;;;12.16;74.83;101279.63;5031256;28;20423;-70
2022/09/23 08:45:53;;;;;;;5.93;3.80;;;;;;;12.26;74.06;101276.47;5032822;28;20446;-70
2022/09/23 08:48:28;;;;;;;4.50;3.33;;;;;;;12.34;73.82;101275.09;5029510;28;20045;-70
2022/09/23 08:51:01;;;;;;;6.30;3.73;;;;;;;12.42;73.47;101264.09;5009736;28;20049;-70
2022/09/23 08:53:34;;;;;;;5.93;3.35;;;;;;;12.50;73.28;101268.94;5029775;28;20474;-70
2022/09/23 08:56:15;;;;;;;6.00;3.63;;;;;;;12.55;72.91;101258.97;5021920;28;20567;-70
2022/09/23 08:59:14;;;;;;;6.28;3.58;;;;;;;12.65;72.99;101263.66;5013260;28;20538;-70
2022/09/23 09:01:57;;;;;;;5.78;3.50;;;;;;;12.73;73.00;101262.34;5040527;28;20064;-70
2022/09/23 09:04:34;;;;;;;8.05;3.72;;;;;;;12.85;72.61;101249.28;5044815;28;20077;-70
2022/09/23 09:07:14;;;;;;;15.57;4.43;;;;;;;12.91;71.84;101254.19;5039214;28;20136;-69
2022/09/23 09:10:15;;;;;;;7.25;3.97;;;;;;;13.02;71.47;101258.88;5006009;28;20791;-70
2022/09/23 09:12:44;;;;;;;11.05;4.13;;;;;;;13.09;71.27;101257.53;5015807;28;20059;-70
2022/09/23 09:15:21;;;;;;;5.70;3.40;;;;;;;13.20;70.02;101254.28;5034177;28;20074;-70
2022/09/23 09:18:06;;;;;;;6.40;3.38;;;;;;;13.24;69.63;101262.88;5030732;28;20771;-70
2022/09/23 09:20:48;;;;;;;4.85;3.13;;;;;;;13.30;70.08;101257.25;5028575;28;20113;-71
2022/09/23 09:23:34;;;;;;;7.63;3.63;;;;;;;13.36;69.84;101255.06;5026640;28;20067;-70
2022/09/23 09:26:01;;;;;;;5.32;3.08;;;;;;;13.48;69.35;101263.22;5028603;28;20049;-70
2022/09/23 09:28:35;;;;;;;3.70;2.97;;;;;;;13.56;69.40;101259.16;5045303;28;20054;-70
2022/09/23 09:31:28;;;;;;;4.70;2.90;;;;;;;13.70;68.05;101252.19;5027744;28;20041;-70
2022/09/23 09:34:05;;;;;;;4.70;2.70;;;;;;;13.81;67.59;101258.50;5018889;28;20151;-70
2022/09/23 09:36:41;;;;;;;5.25;2.97;;;;;;;13.88;66.72;101257.16;5025062;28;20060;-71
2022/09/23 09:39:11;;;;;;;4.35;2.60;;;;;;;13.93;66.64;101254.22;5022150;28;20056;-70
2022/09/23 09:41:52;;;;;;;3.78;2.80;;;;;;;14.00;66.94;101249.38;5024904;28;20072;-70
2022/09/23 09:44:33;;;;;;;5.60;2.70;;;;;;;14.07;66.97;101246.25;5051621;28;20029;-71
2022/09/23 09:47:39;;;;;;;5.25;2.47;;;;;;;14.12;65.14;101232.72;5045004;28;20080;-71
2022/09/23 09:50:12;;;;;;;4.18;2.60;;;;;;;14.23;64.71;101224.09;4967456;28;20065;-70
2022/09/23 09:52:41;;;;;;;15.00;2.53;;;;;;;14.34;64.78;101216.31;5029220;28;20143;-71
2022/09/23 09:55:11;;;;;;;2.72;2.25;;;;;;;14.42;64.55;101211.38;5017191;28;20064;-71
2022/09/23 09:57:51;;;;;;;2.28;1.98;;;;;;;14.54;64.65;101207.91;5023224;28;20048;-70
2022/09/23 10:00:21;;;;;;;3.13;2.17;;;;;;;14.66;64.12;101215.06;5028343;28;20136;-71
2022/09/23 10:02:58;;;;;;;3.20;1.80;;;;;;;14.75;63.69;101204.81;5025654;28;20049;-71
2022/09/23 10:05:45;;;;;;;5.05;2.00;;;;;;;14.89;62.96;101210.88;5035404;28;20403;-71
2022/09/23 10:08:31;;;;;;;2.70;2.38;;;;;;;15.08;62.21;101199.84;5010747;28;20121;-71
2022/09/23 10:10:59;;;;;;;8.18;2.15;;;;;;;15.19;61.39;101202.63;5000155;28;20425;-71
2022/09/23 10:13:28;;;;;;;4.10;2.38;;;;;;;15.27;58.99;101198.59;5016187;28;20045;-72
2022/09/23 10:15:57;;;;;;;5.18;1.88;;;;;;;15.34;57.87;101206.00;5030927;28;20527;-73
2022/09/23 10:18:31;;;;;;;1.75;1.42;;;;;;;15.34;56.72;101202.50;5018045;28;20057;-74
2022/09/23 10:21:13;;;;;;;2.05;1.10;;;;;;;15.48;56.97;101204.19;5028345;28;20141;-70
2022/09/23 10:23:43;;;;;;;2.50;1.42;;;;;;;15.49;54.60;101205.88;5017633;28;20057;-72
2022/09/23 10:26:12;;;;;;;1.85;1.33;;;;;;;15.50;51.38;101200.50;5045639;28;20045;-72
2022/09/23 10:28:45;;;;;;;1.92;1.10;;;;;;;15.48;51.46;101197.09;5028157;28;20091;-72
2022/09/23 10:31:24;;;;;;;3.65;1.02;;;;;;;15.63;52.07;101187.22;5026345;28;20133;-71
2022/09/23 10:34:03;;;;;;;9.38;1.70;;;;;;;15.68;50.56;101196.56;5015211;28;20200;-70
2022/09/23 10:36:32;;;;;;;1.48;1.20;;;;;;;15.68;51.20;101199.22;5026274;28;20056;-70
2022/09/23 10:48:30;;;;;;;3.50;1.73;;;;;;;16.12;51.71;101187.22;5024149;28;20053;-70
2022/09/23 10:50:58;;;;;;;5.45;1.75;;;;;;;16.27;51.33;101184.38;5032108;28;20534;-71
2022/09/23 10:53:46;;;;;;;3.30;1.70;;;;;;;16.33;51.31;101183.91;5050276;28;20076;-71
2022/09/23 10:56:35;;;;;;;1.58;1.25;;;;;;;16.45;50.84;101175.88;5050501;28;20626;-71
2022/09/23 10:59:28;;;;;;;1.70;1.17;;;;;;;16.62;50.31;101184.41;5032539;28;20061;-71
2022/09/23 11:02:15;;;;;;;2.70;1.27;;;;;;;16.78;50.07;101174.31;5013213;28;20043;-71
2022/09/23 11:04:46;;;;;;;3.05;1.05;;;;;;;16.84;47.69;101180.97;5045027;28;20053;-71
2022/09/23 11:07:20;;;;;;;1.58;0.93;;;;;;;16.93;47.11;101174.94;5020629;28;20053;-71
2022/09/23 11:10:06;;;;;;;2.17;1.15;;;;;;;16.96;45.35;101170.25;5027193;28;20056;-71
2022/09/23 11:12:49;;;;;;;3.05;1.27;;;;;;;16.91;45.25;101171.56;5037331;28;20055;-72
2022/09/23 11:15:25;;;;;;;1.52;0.98;;;;;;;16.88;46.49;101163.81;5055758;28;20147;-72
2022/09/23 11:18:07;;;;;;;1.45;1.02;;;;;;;16.89;46.43;101162.88;5016873;28;20049;-72
2022/09/23 11:20:46;;;;;;;1.75;1.08;;;;;;;16.86;46.03;101163.09;5040472;28;20528;-72
2022/09/23 11:23:44;;;;;;;2.03;1.10;;;;;;;16.91;46.52;101147.63;5037763;28;20691;-72
2022/09/23 11:26:26;;;;;;;1.55;1.20;;;;;;;17.09;46.33;101156.00;5042526;28;20143;-72
2022/09/23 11:29:09;;;;;;;2.08;1.40;;;;;;;17.17;45.11;101146.47;5010648;28;20529;-72
2022/09/23 11:31:47;;;;;;;1.60;1.02;;;;;;;17.26;45.87;101146.72;5035638;28;20048;-72
2022/09/23 11:34:38;;;;;;;1.63;1.08;;;;;;;17.16;45.74;101138.63;5040367;28;20056;-72
2022/09/23 11:37:12;;;;;;;4.90;1.23;;;;;;;17.36;46.08;101140.53;5049623;28;20063;-71
2022/09/23 11:39:48;;;;;;;2.28;1.10;;;;;;;17.49;46.22;101135.09;5055182;28;20049;-71
2022/09/23 11:42:28;;;;;;;2.53;1.33;;;;;;;17.67;45.05;101119.44;5015141;28;20128;-72
2022/09/23 11:45:17;;;;;;;4.53;1.58;;;;;;;17.74;44.35;101115.34;5036794;28;20136;-72
2022/09/23 11:47:49;;;;;;;1.67;1.38;;;;;;;17.82;44.16;101112.06;5053567;28;20052;-71
2022/09/23 11:50:24;;;;;;;1.95;1.10;;;;;;;18.01;44.85;101111.38;5016940;28;20113;-72
2022/09/23 11:53:31;;;;;;;1.73;1.15;;;;;;;18.15;43.60;101103.13;5043787;28;20045;-72
2022/09/23 11:56:03;;;;;;;;;;;;;;;18.40;44.04;101109.91;4988658;28;20045;-71
2022/09/23 11:58:38;;;;;;;1.73;1.13;;;;;;;18.66;42.50;101110.34;5016617;28;19935;-72
2022/09/23 12:01:18;;;;;;;3.92;1.35;;;;;;;18.80;42.59;101103.88;5052112;28;20112;-71
2022/09/23 12:04:21;;;;;;;7.75;1.48;;;;;;;18.84;41.96;101100.81;5045128;28;20056;-71
2022/09/23 12:07:18;;;;;;;1.33;1.00;;;;;;;18.79;42.14;101100.38;5027211;28;20114;-71
2022/09/23 12:10:06;;;;;;;3.97;1.20;;;;;;;18.85;43.88;101090.97;5029692;28;20057;-71